Time;durP1;ratioP1;P1;durP2;ratioP2;P2;SDS_P1;SDS_P2;PMS_P1;PMS_P2;Temp;Humidity;BMP_temperature;BMP_pressure;BME280_temperature;BME280_humidity;BME280_pressure;Samples;Min_cycle;Max_cycle;Signal;HPM_P1;HPM_P2
2023/07/14 00:00:20;;;;;;;12.60;5.80;;;16.90;99.90;;;;;;5094974;28;20036;-74
2023/07/14 00:02:48;;;;;;;9.97;5.13;;;16.90;99.90;;;;;;5095181;28;20067;-74
2023/07/14 00:05:26;;;;;;;11.20;5.80;;;16.90;99.90;;;;;;5093628;28;20055;-75
2023/07/14 00:07:54;;;;;;;7.60;5.60;;;16.90;99.90;;;;;;5094638;28;20483;-75
2023/07/14 00:10:31;;;;;;;9.33;5.70;;;16.90;99.90;;;;;;5092947;28;20399;-75
2023/07/14 00:12:59;;;;;;;10.77;5.63;;;16.90;99.90;;;;;;5094964;28;20047;-75
2023/07/14 00:15:26;;;;;;;8.70;5.73;;;16.80;99.90;;;;;;5093124;28;20251;-75
2023/07/14 00:17:55;;;;;;;11.27;6.67;;;16.70;99.90;;;;;;5094630;28;20391;-75
2023/07/14 00:20:27;;;;;;;11.17;6.20;;;16.70;99.90;;;;;;5094329;28;20126;-75
2023/07/14 00:22:54;;;;;;;9.13;5.53;;;16.70;99.90;;;;;;5094449;28;20491;-75
2023/07/14 00:25:22;;;;;;;9.47;6.67;;;16.70;99.90;;;;;;5094596;28;20102;-75
2023/07/14 00:27:52;;;;;;;9.03;6.23;;;16.70;99.90;;;;;;5093864;28;20056;-74
2023/07/14 00:30:24;;;;;;;10.97;6.57;;;16.70;99.90;;;;;;5093092;28;20471;-75
2023/07/14 00:32:52;;;;;;;12.50;6.20;;;16.80;99.90;;;;;;5094845;28;20044;-74
2023/07/14 00:35:27;;;;;;;13.47;6.63;;;16.80;99.90;;;;;;5094028;28;20048;-74
2023/07/14 00:37:57;;;;;;;12.85;7.05;;;16.80;99.90;;;;;;5094529;28;20123;-74
2023/07/14 00:40:33;;;;;;;10.87;6.43;;;16.80;99.90;;;;;;5094129;28;20044;-74
2023/07/14 00:42:59;;;;;;;11.17;6.33;;;16.80;99.90;;;;;;5094456;28;20048;-74
2023/07/14 00:45:27;;;;;;;9.20;6.70;;;16.80;99.90;;;;;;5093902;28;20048;-75
2023/07/14 00:48:03;;;;;;;13.03;7.93;;;16.80;99.90;;;;;;5094367;28;20381;-74
2023/07/14 00:50:43;;;;;;;13.00;7.50;;;16.80;99.90;;;;;;5093906;28;20036;-74
2023/07/14 00:53:40;;;;;;;10.97;6.97;;;16.80;99.90;;;;;;5059433;28;20139;-74
2023/07/14 00:56:14;;;;;;;10.53;7.27;;;16.80;99.90;;;;;;5084963;28;20395;-74
2023/07/14 00:58:49;;;;;;;11.05;7.45;;;16.70;99.90;;;;;;5094418;28;20415;-74
2023/07/14 01:01:25;;;;;;;11.63;8.38;;;16.70;99.90;;;;;;5093868;28;20391;-74
2023/07/14 01:03:56;;;;;;;12.37;7.40;;;16.70;99.90;;;;;;5092432;28;20063;-74
2023/07/14 01:06:25;;;;;;;10.83;7.77;;;16.70;99.90;;;;;;5075822;28;20395;-74
2023/07/14 01:08:56;;;;;;;12.63;9.37;;;16.70;99.90;;;;;;5093865;28;20055;-74
2023/07/14 01:11:28;;;;;;;11.83;8.27;;;16.70;99.90;;;;;;5093560;28;20044;-74
2023/07/14 01:13:55;;;;;;;12.23;8.43;;;16.70;99.90;;;;;;5093919;28;20361;-74
2023/07/14 01:16:21;;;;;;;14.23;8.37;;;16.70;99.90;;;;;;5093482;28;20040;-74
2023/07/14 01:18:49;;;;;;;11.57;8.20;;;16.70;99.90;;;;;;5093978;28;20096;-74
2023/07/14 01:21:21;;;;;;;11.23;8.03;;;16.70;99.90;;;;;;5093404;28;20052;-74
2023/07/14 01:24:24;;;;;;;13.07;8.23;;;16.70;99.90;;;;;;5093719;28;20093;-74
2023/07/14 01:27:02;;;;;;;14.97;8.03;;;16.70;99.90;;;;;;5086879;28;20060;-74
2023/07/14 01:29:28;;;;;;;11.13;7.97;;;16.70;99.90;;;;;;5093190;28;20036;-74
2023/07/14 01:31:55;;;;;;;12.13;8.37;;;16.70;99.90;;;;;;5093475;28;20536;-74
2023/07/14 01:34:22;;;;;;;11.73;8.30;;;16.60;99.90;;;;;;5093192;28;20096;-74
2023/07/14 01:36:48;;;;;;;11.37;7.80;;;16.60;99.90;;;;;;5093389;28;20445;-74
2023/07/14 01:39:15;;;;;;;11.40;7.90;;;16.60;99.90;;;;;;5093137;28;20396;-74
2023/07/14 01:41:41;;;;;;;9.93;7.53;;;16.50;99.90;;;;;;5093305;28;20173;-74
2023/07/14 01:44:15;;;;;;;11.40;7.60;;;16.50;99.90;;;;;;5093412;28;20048;-74
2023/07/14 01:46:41;;;;;;;10.87;7.53;;;16.50;99.90;;;;;;5093534;28;20048;-74
2023/07/14 01:49:29;;;;;;;11.83;7.37;;;16.60;99.90;;;;;;5093225;28;20044;-74
2023/07/14 01:51:59;;;;;;;9.40;7.27;;;16.60;99.90;;;;;;5092973;28;20044;-74
2023/07/14 01:54:51;;;;;;;11.10;7.43;;;16.60;99.90;;;;;;5091915;28;20190;-74
2023/07/14 01:57:20;;;;;;;11.97;8.13;;;16.50;99.90;;;;;;5092596;28;20052;-74
2023/07/14 01:59:51;;;;;;;12.30;7.47;;;16.50;99.90;;;;;;5093357;28;20051;-74
2023/07/14 02:02:24;;;;;;;12.33;7.53;;;16.50;99.90;;;;;;5092963;28;20123;-74
2023/07/14 02:04:51;;;;;;;11.03;7.70;;;16.50;99.90;;;;;;5093180;28;20044;-74
2023/07/14 02:07:17;;;;;;;13.67;8.40;;;16.50;99.90;;;;;;5092638;28;20043;-75
2023/07/14 02:09:43;;;;;;;10.80;7.43;;;16.50;99.90;;;;;;5092825;28;20051;-74
2023/07/14 02:12:16;;;;;;;13.00;8.57;;;16.50;99.90;;;;;;5092969;28;20079;-74
2023/07/14 02:15:02;;;;;;;11.67;8.03;;;16.50;99.90;;;;;;5092952;28;20079;-75
2023/07/14 02:17:33;;;;;;;11.40;8.17;;;16.40;99.90;;;;;;5092309;28;20504;-74
2023/07/14 02:20:04;;;;;;;12.57;7.97;;;16.40;99.90;;;;;;5092861;28;20117;-74
2023/07/14 02:22:31;;;;;;;12.27;8.17;;;16.40;99.90;;;;;;5092632;28;20044;-74
2023/07/14 02:24:58;;;;;;;10.77;7.97;;;16.40;99.90;;;;;;5092807;28;20395;-74
2023/07/14 02:27:24;;;;;;;11.33;8.20;;;16.50;99.90;;;;;;5092215;28;20044;-75
2023/07/14 02:29:49;;;;;;;11.67;7.83;;;16.50;99.90;;;;;;5091536;28;20054;-74
2023/07/14 02:32:18;;;;;;;12.23;8.40;;;16.50;99.90;;;;;;5092683;28;20530;-74
2023/07/14 02:34:51;;;;;;;11.27;8.47;;;16.50;99.90;;;;;;5092250;28;20377;-74
2023/07/14 02:38:03;;;;;;;14.03;8.10;;;16.40;99.90;;;;;;5092848;28;20067;-74
2023/07/14 02:40:43;;;;;;;11.67;7.83;;;16.40;99.90;;;;;;5092190;28;20546;-75
2023/07/14 02:43:16;;;;;;;11.77;8.10;;;16.40;99.90;;;;;;5092730;28;20043;-74
2023/07/14 02:46:03;;;;;;;13.03;8.83;;;16.40;99.90;;;;;;5092414;28;20391;-74
2023/07/14 02:48:33;;;;;;;12.53;7.97;;;16.40;99.90;;;;;;5092339;28;20127;-74
2023/07/14 02:50:59;;;;;;;11.50;7.53;;;16.40;99.90;;;;;;5092875;28;20090;-74
2023/07/14 02:53:24;;;;;;;12.37;7.90;;;16.30;99.90;;;;;;5092409;28;20075;-74
2023/07/14 02:55:50;;;;;;;11.53;7.67;;;16.30;99.90;;;;;;5092833;28;20558;-74
2023/07/14 02:58:17;;;;;;;13.70;8.50;;;16.30;99.90;;;;;;5092498;28;20040;-74
2023/07/14 03:00:43;;;;;;;11.33;8.10;;;16.30;99.90;;;;;;5092133;28;20118;-74
2023/07/14 03:03:09;;;;;;;15.07;8.57;;;16.20;99.90;;;;;;5091430;28;20040;-74
2023/07/14 03:05:35;;;;;;;12.23;8.13;;;16.20;99.90;;;;;;5092144;28;20345;-74
2023/07/14 03:08:02;;;;;;;11.40;7.60;;;16.20;99.90;;;;;;5091666;28;20055;-74
2023/07/14 03:10:28;;;;;;;10.17;7.73;;;16.20;99.90;;;;;;5092002;28;20048;-74
2023/07/14 03:12:53;;;;;;;10.50;8.20;;;16.20;99.90;;;;;;5092117;28;20048;-74
2023/07/14 03:15:20;;;;;;;12.47;8.30;;;16.20;99.90;;;;;;5092241;28;20055;-74
2023/07/14 03:17:46;;;;;;;10.90;7.30;;;16.20;99.90;;;;;;5092036;28;20496;-74
2023/07/14 03:20:14;;;;;;;10.10;7.90;;;16.20;99.90;;;;;;5092221;28;20128;-74
2023/07/14 03:22:39;;;;;;;12.30;7.90;;;16.10;99.90;;;;;;5091695;28;20411;-74
2023/07/14 03:25:06;;;;;;;12.00;7.73;;;16.10;99.90;;;;;;5091232;28;20126;-73
2023/07/14 03:27:32;;;;;;;17.13;7.87;;;16.10;99.90;;;;;;5093517;28;20048;-75
2023/07/14 03:29:58;;;;;;;13.83;7.87;;;16.10;99.90;;;;;;5094222;28;20506;-74
2023/07/14 03:32:24;;;;;;;11.63;7.23;;;16.10;99.90;;;;;;5094820;28;20055;-74
2023/07/14 03:34:49;;;;;;;13.10;7.20;;;16.10;99.90;;;;;;5095734;28;20133;-74
2023/07/14 03:37:15;;;;;;;11.00;7.47;;;16.10;99.90;;;;;;5096017;28;20063;-74
2023/07/14 03:39:41;;;;;;;11.57;7.53;;;16.10;99.90;;;;;;5095261;28;20083;-74
2023/07/14 03:42:06;;;;;;;11.47;7.63;;;16.10;99.90;;;;;;5095784;28;20048;-75
2023/07/14 03:44:32;;;;;;;11.30;7.63;;;16.10;99.90;;;;;;5095369;28;20040;-75
2023/07/14 03:46:58;;;;;;;10.63;7.13;;;16.10;99.90;;;;;;5094623;28;20403;-74
2023/07/14 03:49:25;;;;;;;13.43;7.70;;;16.10;99.90;;;;;;5095404;28;20036;-74
2023/07/14 03:51:52;;;;;;;11.97;7.30;;;16.00;99.90;;;;;;5094517;28;20087;-69
2023/07/14 03:54:17;;;;;;;9.97;6.90;;;16.10;99.90;;;;;;5095322;28;20126;-70
2023/07/14 03:56:44;;;;;;;13.53;7.50;;;16.10;99.90;;;;;;5093603;28;20510;-70
2023/07/14 03:59:10;;;;;;;14.87;6.80;;;16.00;99.90;;;;;;5094725;28;20048;-71
2023/07/14 04:01:36;;;;;;;13.40;6.60;;;16.00;99.90;;;;;;5094784;28;20055;-72
2023/07/14 04:04:02;;;;;;;9.90;5.63;;;16.00;99.90;;;;;;5095050;28;20040;-74
2023/07/14 04:06:28;;;;;;;11.63;6.50;;;16.00;99.90;;;;;;5094962;28;20036;-73
2023/07/14 04:08:58;;;;;;;12.60;6.20;;;16.00;99.90;;;;;;5094814;28;20040;-72
2023/07/14 04:11:24;;;;;;;10.20;6.00;;;16.00;99.90;;;;;;5094927;28;20131;-73
2023/07/14 04:13:50;;;;;;;10.93;5.87;;;16.00;99.90;;;;;;5094564;28;20233;-74
2023/07/14 04:16:15;;;;;;;9.50;6.00;;;16.00;99.90;;;;;;5094714;28;20052;-74
2023/07/14 04:18:42;;;;;;;9.13;5.60;;;16.00;99.90;;;;;;5094532;28;20126;-75
2023/07/14 04:21:13;;;;;;;10.70;6.20;;;16.00;99.90;;;;;;5077133;28;20495;-75
2023/07/14 04:23:39;;;;;;;12.33;5.80;;;16.10;99.90;;;;;;5094507;28;20102;-75
2023/07/14 04:26:12;;;;;;;10.50;5.57;;;16.10;99.90;;;;;;5094585;28;20044;-75
2023/07/14 04:28:38;;;;;;;10.63;5.50;;;16.10;99.90;;;;;;5093401;28;20486;-74
2023/07/14 04:31:03;;;;;;;11.43;6.07;;;16.10;99.90;;;;;;5094539;28;20097;-68
2023/07/14 04:33:30;;;;;;;12.27;6.00;;;16.10;99.90;;;;;;5094461;28;20460;-71
2023/07/14 04:35:57;;;;;;;10.23;5.50;;;16.10;99.90;;;;;;5093962;28;20071;-72
2023/07/14 04:38:24;;;;;;;9.63;4.57;;;16.20;99.90;;;;;;5091880;28;20087;-69
2023/07/14 04:40:50;;;;;;;11.33;4.77;;;16.20;99.90;;;;;;5094121;28;20055;-71
2023/07/14 04:43:18;;;;;;;9.33;4.70;;;16.30;99.90;;;;;;5094429;28;20048;-73
2023/07/14 04:45:45;;;;;;;9.77;4.73;;;16.30;99.90;;;;;;5094158;28;20070;-73
2023/07/14 04:48:16;;;;;;;13.60;4.70;;;16.30;99.90;;;;;;5094010;28;20496;-73
2023/07/14 04:50:45;;;;;;;10.07;4.57;;;16.40;99.90;;;;;;5093942;28;20079;-73
2023/07/14 04:53:12;;;;;;;11.80;5.03;;;16.40;99.90;;;;;;5094499;28;20125;-73
2023/07/14 04:55:42;;;;;;;10.47;5.13;;;16.50;99.90;;;;;;5092884;28;20048;-73
2023/07/14 04:58:10;;;;;;;9.30;4.80;;;16.50;99.90;;;;;;5094078;28;20093;-73
2023/07/14 05:00:37;;;;;;;11.03;4.80;;;16.60;99.90;;;;;;5093851;28;20399;-75
2023/07/14 05:03:04;;;;;;;11.10;4.67;;;16.70;99.90;;;;;;5094073;28;20048;-73
2023/07/14 05:05:30;;;;;;;10.10;4.57;;;16.80;99.90;;;;;;5093884;28;20127;-73
2023/07/14 05:07:56;;;;;;;9.40;4.63;;;16.80;99.90;;;;;;5093614;28;20096;-73
2023/07/14 05:10:24;;;;;;;10.60;4.60;;;16.90;99.90;;;;;;5092798;28;20433;-73
2023/07/14 05:12:51;;;;;;;9.27;4.40;;;17.00;99.90;;;;;;5093644;28;20059;-73
2023/07/14 05:15:18;;;;;;;9.77;4.57;;;17.10;99.90;;;;;;5093970;28;20138;-73
2023/07/14 05:17:45;;;;;;;8.37;4.30;;;17.20;99.90;;;;;;5093180;28;20083;-74
2023/07/14 05:20:14;;;;;;;9.40;4.03;;;17.30;99.90;;;;;;5092459;28;20404;-73
2023/07/14 05:22:48;;;;;;;5.90;3.70;;;17.40;99.90;;;;;;5093442;28;20376;-74
2023/07/14 05:25:15;;;;;;;10.10;4.23;;;17.50;99.90;;;;;;5093363;28;20518;-73
2023/07/14 05:27:43;;;;;;;9.60;4.67;;;17.60;99.90;;;;;;5075345;28;20472;-74
2023/07/14 05:30:14;;;;;;;10.30;4.40;;;17.70;99.90;;;;;;5093434;28;20051;-73
2023/07/14 05:32:41;;;;;;;7.43;4.20;;;17.90;99.90;;;;;;5093606;28;20047;-76
2023/07/14 05:35:07;;;;;;;8.60;3.90;;;18.00;99.90;;;;;;5092245;28;20369;-73
2023/07/14 05:37:33;;;;;;;11.23;3.70;;;18.00;99.90;;;;;;5092596;28;20445;-73
2023/07/14 05:39:59;;;;;;;11.60;4.83;;;18.10;99.90;;;;;;5093134;28;20127;-73
2023/07/14 05:42:24;;;;;;;9.87;3.83;;;18.20;99.90;;;;;;5093315;28;20048;-73
2023/07/14 05:44:50;;;;;;;9.10;4.60;;;18.30;99.90;;;;;;5093064;28;20048;-73
2023/07/14 05:47:16;;;;;;;9.47;4.07;;;18.50;99.90;;;;;;5092239;28;20044;-73
2023/07/14 05:49:42;;;;;;;8.03;4.33;;;18.60;99.90;;;;;;5074498;28;20040;-75
2023/07/14 05:52:12;;;;;;;11.37;3.53;;;18.80;99.90;;;;;;5091954;28;20083;-74
2023/07/14 05:54:38;;;;;;;9.30;4.17;;;19.00;99.90;;;;;;5093106;28;20084;-74
2023/07/14 05:57:03;;;;;;;9.57;4.17;;;19.70;99.90;;;;;;5092856;28;20076;-74
2023/07/14 05:59:29;;;;;;;8.37;3.43;;;20.80;99.90;;;;;;5093118;28;20498;-74
2023/07/14 06:01:55;;;;;;;9.27;4.10;;;21.90;99.90;;;;;;5092723;28;20114;-74
2023/07/14 06:04:21;;;;;;;8.87;3.87;;;22.80;99.90;;;;;;5093026;28;20143;-74
2023/07/14 06:06:46;;;;;;;10.10;3.90;;;23.70;99.90;;;;;;5091622;28;20064;-74
2023/07/14 06:09:16;;;;;;;8.27;3.20;;;24.40;99.90;;;;;;5092891;28;20536;-74
2023/07/14 06:11:43;;;;;;;14.23;4.03;;;25.10;99.90;;;;;;5093199;28;20044;-74
2023/07/14 06:14:10;;;;;;;8.97;3.30;;;25.70;99.90;;;;;;5092844;28;20040;-74
2023/07/14 06:16:36;;;;;;;7.37;3.27;;;26.30;99.90;;;;;;5093009;28;20135;-74
2023/07/14 06:19:03;;;;;;;7.50;3.03;;;26.70;99.90;;;;;;5092630;28;20048;-74
2023/07/14 06:21:29;;;;;;;8.30;3.47;;;26.90;99.00;;;;;;5091785;28;20472;-74
2023/07/14 06:23:54;;;;;;;9.60;3.50;;;27.30;96.60;;;;;;5091500;28;20059;-74
2023/07/14 06:26:20;;;;;;;7.00;3.53;;;27.50;94.00;;;;;;5091833;28;20040;-74
2023/07/14 06:28:46;;;;;;;7.17;3.20;;;27.90;91.40;;;;;;5092489;28;20051;-76
2023/07/14 06:31:13;;;;;;;8.40;3.30;;;28.10;85.80;;;;;;5092610;28;20047;-74
2023/07/14 06:33:39;;;;;;;8.47;3.33;;;28.60;77.70;;;;;;5092418;28;20510;-74
2023/07/14 06:36:06;;;;;;;8.73;3.43;;;29.00;76.20;;;;;;5092106;28;20109;-74
2023/07/14 06:38:31;;;;;;;7.20;3.60;;;29.10;71.70;;;;;;5092733;28;20048;-74
2023/07/14 06:40:59;;;;;;;7.90;3.90;;;29.20;66.50;;;;;;5092354;28;20383;-74
2023/07/14 06:43:25;;;;;;;6.60;3.15;;;29.40;63.50;;;;;;5092856;28;20119;-74
2023/07/14 06:45:51;;;;;;;9.00;3.95;;;29.40;63.60;;;;;;5092436;28;20093;-74
2023/07/14 06:48:17;;;;;;;8.80;4.07;;;29.70;62.70;;;;;;5092587;28;20050;-74
2023/07/14 06:50:44;;;;;;;8.13;3.53;;;30.10;59.50;;;;;;5092560;28;20160;-74
2023/07/14 06:53:10;;;;;;;6.88;3.90;;;30.20;58.10;;;;;;5092291;28;20071;-74
2023/07/14 06:55:39;;;;;;;8.65;3.53;;;30.40;57.20;;;;;;5092490;28;20491;-74
2023/07/14 06:58:05;;;;;;;8.45;4.07;;;30.40;55.20;;;;;;5092317;28;20044;-75
2023/07/14 07:00:33;;;;;;;9.18;4.43;;;30.80;55.00;;;;;;5091782;28;20048;-74
2023/07/14 07:02:59;;;;;;;8.13;4.20;;;30.90;53.40;;;;;;5094975;28;20405;-75
2023/07/14 07:05:24;;;;;;;8.40;3.88;;;31.00;52.80;;;;;;5096331;28;20051;-75
2023/07/14 07:07:51;;;;;;;8.40;4.55;;;31.00;52.10;;;;;;5094741;28;20036;-76
2023/07/14 07:10:17;;;;;;;7.55;4.13;;;31.00;51.80;;;;;;5095334;28;20048;-75
2023/07/14 07:12:43;;;;;;;10.57;4.93;;;31.30;51.40;;;;;;5078505;28;20365;-74
2023/07/14 07:15:09;;;;;;;8.75;4.72;;;31.70;51.00;;;;;;5095831;28;20051;-72
2023/07/14 07:17:38;;;;;;;7.35;4.13;;;32.10;50.00;;;;;;5094859;28;20052;-73
2023/07/14 07:20:06;;;;;;;8.05;4.80;;;32.00;48.40;;;;;;5095765;28;20040;-73
2023/07/14 07:22:33;;;;;;;7.63;4.63;;;31.90;48.30;;;;;;5096009;28;20047;-73
2023/07/14 07:24:59;;;;;;;8.43;4.65;;;31.60;47.60;;;;;;5095687;28;20048;-73
2023/07/14 07:27:24;;;;;;;8.80;4.55;;;31.50;48.60;;;;;;5095933;28;20055;-72
2023/07/14 07:29:50;;;;;;;8.10;4.20;;;31.80;48.80;;;;;;5095516;28;20456;-71
2023/07/14 07:32:17;;;;;;;7.95;4.43;;;31.90;48.00;;;;;;5095476;28;20135;-72
2023/07/14 07:34:42;;;;;;;6.28;4.00;;;32.10;47.50;;;;;;5095776;28;20052;-73
2023/07/14 07:37:09;;;;;;;8.40;4.57;;;32.30;47.20;;;;;;5093963;28;20356;-73
2023/07/14 07:39:35;;;;;;;8.15;4.00;;;32.80;46.70;;;;;;5095426;28;20495;-73
2023/07/14 07:42:01;;;;;;;11.27;4.40;;;33.00;45.60;;;;;;5095481;28;20083;-75
2023/07/14 07:44:27;;;;;;;6.38;3.50;;;33.10;45.40;;;;;;5095354;28;20407;-75
2023/07/14 07:46:53;;;;;;;5.20;3.25;;;33.30;44.70;;;;;;5094599;28;20079;-75
2023/07/14 07:49:19;;;;;;;5.90;3.53;;;33.60;43.50;;;;;;5095235;28;20553;-75
2023/07/14 07:51:45;;;;;;;8.82;4.00;;;33.40;42.90;;;;;;5095249;28;20090;-75
2023/07/14 07:54:10;;;;;;;6.70;3.70;;;33.40;43.70;;;;;;5076887;28;20472;-74
2023/07/14 07:56:36;;;;;;;8.00;3.55;;;33.70;43.70;;;;;;5095336;28;20052;-75
2023/07/14 07:59:02;;;;;;;6.57;3.60;;;34.00;42.80;;;;;;5095028;28;20122;-75
2023/07/14 08:01:28;;;;;;;5.45;3.03;;;34.10;42.10;;;;;;5095327;28;20040;-74
2023/07/14 08:03:54;;;;;;;5.65;3.47;;;34.40;42.10;;;;;;5094199;28;20465;-74
2023/07/14 08:06:21;;;;;;;5.00;3.22;;;34.60;41.70;;;;;;5093915;28;20518;-75
2023/07/14 08:08:48;;;;;;;8.27;4.38;;;34.50;40.40;;;;;;5095012;28;20084;-74
2023/07/14 08:11:14;;;;;;;5.47;2.90;;;34.50;40.30;;;;;;5094811;28;20048;-74
2023/07/14 08:13:40;;;;;;;7.07;3.58;;;34.50;40.30;;;;;;5094851;28;20065;-74
2023/07/14 08:16:06;;;;;;;6.63;3.17;;;34.60;40.50;;;;;;5093457;28;20059;-75
2023/07/14 08:18:32;;;;;;;7.50;4.20;;;34.80;40.50;;;;;;5094185;28;20055;-74
2023/07/14 08:20:59;;;;;;;6.88;3.60;;;35.00;40.00;;;;;;5093751;28;20047;-77
2023/07/14 08:23:25;;;;;;;4.93;3.17;;;34.70;40.40;;;;;;5094778;28;20135;-74
2023/07/14 08:25:57;;;;;;;5.10;3.10;;;34.70;40.30;;;;;;5094767;28;20075;-75
2023/07/14 08:28:23;;;;;;;6.97;3.30;;;34.80;39.80;;;;;;5094720;28;20044;-75
2023/07/14 08:30:50;;;;;;;7.00;3.20;;;34.30;39.80;;;;;;5094705;28;20036;-74
2023/07/14 08:33:18;;;;;;;5.93;3.33;;;33.90;39.60;;;;;;5094394;28;20102;-73
2023/07/14 08:35:44;;;;;;;7.15;3.47;;;33.90;39.80;;;;;;5094230;28;20056;-74
2023/07/14 08:38:10;;;;;;;6.07;3.00;;;34.20;39.80;;;;;;5094404;28;20059;-74
2023/07/14 08:40:52;;;;;;;6.22;3.45;;;34.00;40.30;;;;;;5093290;28;20044;-74
2023/07/14 08:43:30;;;;;;;8.05;3.70;;;33.60;39.20;;;;;;5094310;28;20058;-71
2023/07/14 08:46:03;;;;;;;4.50;3.00;;;33.40;41.10;;;;;;5094641;28;20048;-74
2023/07/14 08:48:40;;;;;;;5.95;3.20;;;33.50;41.30;;;;;;5093691;28;20059;-73
2023/07/14 08:51:18;;;;;;;5.15;3.00;;;33.10;41.00;;;;;;5094061;28;20501;-74
2023/07/14 08:53:55;;;;;;;5.68;2.90;;;32.50;41.10;;;;;;5091239;28;20059;-74
2023/07/14 08:56:22;;;;;;;6.32;3.72;;;31.60;41.90;;;;;;5086053;28;20059;-74
2023/07/14 08:58:50;;;;;;;5.28;3.05;;;31.10;42.30;;;;;;5093145;28;20040;-76
2023/07/14 09:01:34;;;;;;;5.60;2.90;;;30.60;43.00;;;;;;5085302;28;20064;-75
2023/07/14 09:04:09;;;;;;;5.72;2.80;;;30.30;43.50;;;;;;5087985;28;20071;-76
2023/07/14 09:06:36;;;;;;;5.15;3.10;;;29.90;44.00;;;;;;5088917;28;20058;-78
2023/07/14 09:09:09;;;;;;;5.25;2.65;;;29.40;43.90;;;;;;5089455;28;20792;-80
2023/07/14 09:11:52;;;;;;;8.18;3.60;;;29.10;43.90;;;;;;5094214;28;20056;-77
2023/07/14 09:14:39;;;;;;;8.05;2.92;;;28.70;45.40;;;;;;5084820;28;20040;-77
2023/07/14 09:17:32;;;;;;;7.15;2.60;;;28.40;46.30;;;;;;5087930;28;20135;-77
2023/07/14 09:20:28;;;;;;;6.90;3.65;;;28.10;47.20;;;;;;5089070;28;20052;-75
2023/07/14 09:23:15;;;;;;;6.82;3.13;;;27.90;46.80;;;;;;5089204;28;20341;-77
2023/07/14 09:25:55;;;;;;;7.40;2.70;;;27.60;48.40;;;;;;5086685;28;20086;-76
2023/07/14 09:28:33;;;;;;;5.53;3.47;;;27.70;48.40;;;;;;5086240;28;20101;-76
2023/07/14 09:31:05;;;;;;;11.55;3.50;;;27.80;48.50;;;;;;5090146;28;20044;-76
2023/07/14 09:33:48;;;;;;;7.60;3.85;;;27.70;48.70;;;;;;5091603;28;20453;-76
2023/07/14 09:36:13;;;;;;;6.97;3.22;;;27.60;48.40;;;;;;5091049;28;20064;-76
2023/07/14 09:38:52;;;;;;;5.45;2.92;;;27.50;48.80;;;;;;5093188;28;20055;-76
2023/07/14 09:41:20;;;;;;;6.13;2.80;;;27.60;48.70;;;;;;5092793;28;20079;-76
2023/07/14 09:43:46;;;;;;;7.22;3.10;;;27.50;49.10;;;;;;5091741;28;20127;-76
2023/07/14 09:46:17;;;;;;;8.57;3.42;;;27.40;49.20;;;;;;5092657;28;20127;-77
2023/07/14 09:48:50;;;;;;;8.70;4.00;;;27.20;48.90;;;;;;5092785;28;20407;-75
2023/07/14 09:51:20;;;;;;;9.82;3.53;;;26.90;50.10;;;;;;5091825;28;20052;-76
2023/07/14 09:54:01;;;;;;;6.95;4.05;;;26.70;50.10;;;;;;5092754;28;20489;-76
2023/07/14 09:56:45;;;;;;;6.03;3.10;;;26.50;50.80;;;;;;5092846;28;20333;-76
2023/07/14 09:59:22;;;;;;;9.23;3.85;;;26.30;51.60;;;;;;5075053;28;20047;-77
2023/07/14 10:01:59;;;;;;;6.88;3.17;;;26.20;52.00;;;;;;5093226;28;20120;-76
2023/07/14 10:04:30;;;;;;;6.00;3.65;;;26.20;52.60;;;;;;5092602;28;20051;-76
2023/07/14 10:07:24;;;;;;;7.40;3.70;;;26.20;52.70;;;;;;5091652;28;20044;-76
2023/07/14 10:10:09;;;;;;;8.15;3.40;;;26.10;53.30;;;;;;5092938;28;20396;-75
2023/07/14 10:12:37;;;;;;;8.48;3.85;;;26.00;53.00;;;;;;5093377;28;20400;-74
2023/07/14 10:15:22;;;;;;;6.75;3.55;;;25.90;53.40;;;;;;5092969;28;20048;-78
2023/07/14 10:17:54;;;;;;;6.10;3.13;;;25.70;53.90;;;;;;5093222;28;20048;-76
2023/07/14 10:20:22;;;;;;;5.77;3.07;;;25.50;54.90;;;;;;5092577;28;20051;-74
2023/07/14 10:22:54;;;;;;;6.03;3.57;;;25.50;55.10;;;;;;5092749;28;20158;-76
2023/07/14 10:25:22;;;;;;;6.82;3.60;;;25.40;54.60;;;;;;5092450;28;20048;-75
2023/07/14 10:27:58;;;;;;;5.23;3.00;;;25.20;55.10;;;;;;5092806;28;20048;-76
2023/07/14 10:30:43;;;;;;;6.67;3.07;;;25.10;55.90;;;;;;5092470;28;20044;-71
2023/07/14 10:33:22;;;;;;;6.77;3.40;;;25.00;55.70;;;;;;5092868;28;20063;-74
2023/07/14 10:35:59;;;;;;;5.63;3.20;;;24.90;56.00;;;;;;5092617;28;20044;-76
2023/07/14 10:38:33;;;;;;;7.70;2.80;;;25.00;56.70;;;;;;5096497;28;20055;-76
2023/07/14 10:41:01;;;;;;;5.40;2.80;;;25.00;57.10;;;;;;5095627;28;20482;-75
2023/07/14 10:43:45;;;;;;;5.53;3.00;;;25.10;57.30;;;;;;5096739;28;20506;-77
2023/07/14 10:46:22;;;;;;;6.35;2.97;;;25.20;57.00;;;;;;5097003;28;20048;-75
2023/07/14 10:48:59;;;;;;;6.40;2.93;;;25.20;56.40;;;;;;5096969;28;20087;-76
2023/07/14 10:51:46;;;;;;;5.77;3.50;;;25.10;56.10;;;;;;5096479;28;20040;-77
2023/07/14 10:54:21;;;;;;;5.97;2.70;;;25.10;56.60;;;;;;5096779;28;20188;-75
2023/07/14 10:56:58;;;;;;;5.57;2.87;;;25.10;56.90;;;;;;5096802;28;20048;-76
2023/07/14 10:59:29;;;;;;;7.20;3.10;;;25.10;57.70;;;;;;5096377;28;20040;-73
2023/07/14 11:02:00;;;;;;;8.23;3.33;;;25.30;59.30;;;;;;5095571;28;20049;-77
2023/07/14 11:04:37;;;;;;;8.93;3.60;;;25.40;58.90;;;;;;5093225;28;20380;-74
2023/07/14 11:07:04;;;;;;;13.83;3.77;;;25.40;59.50;;;;;;5095940;28;20056;-75
2023/07/14 11:09:30;;;;;;;14.80;4.10;;;25.40;58.60;;;;;;5094937;28;20055;-75
2023/07/14 11:12:03;;;;;;;6.43;3.30;;;25.30;58.60;;;;;;5096017;28;20499;-74
2023/07/14 11:14:29;;;;;;;10.20;4.00;;;25.20;60.00;;;;;;5095533;28;20056;-74
2023/07/14 11:17:28;;;;;;;6.97;4.40;;;25.10;60.20;;;;;;5095763;28;20127;-74
2023/07/14 11:20:15;;;;;;;8.23;4.07;;;25.10;62.30;;;;;;5095358;28;20105;-73
2023/07/14 11:23:25;;;;;;;9.40;4.63;;;25.10;63.50;;;;;;5095211;28;20055;-73
2023/07/14 11:26:08;;;;;;;7.87;3.87;;;25.00;63.30;;;;;;5036543;28;20061;-75
2023/07/14 11:29:10;;;;;;;10.93;4.80;;;24.90;64.50;;;;;;5052731;28;20444;-74
2023/07/14 11:31:45;;;;;;;9.17;4.53;;;25.00;65.80;;;;;;5047207;28;20052;-76
2023/07/14 11:34:23;;;;;;;8.67;4.13;;;25.00;65.80;;;;;;5085569;28;21136;-75
2023/07/14 11:37:22;;;;;;;9.87;4.13;;;24.90;64.30;;;;;;5080952;28;20051;-76
2023/07/14 11:39:56;;;;;;;8.93;4.30;;;24.80;64.80;;;;;;5094433;28;20055;-74
2023/07/14 11:42:35;;;;;;;6.63;3.80;;;24.70;65.70;;;;;;5094994;28;20040;-74
2023/07/14 11:45:05;;;;;;;8.47;3.67;;;24.70;65.40;;;;;;5095356;28;20093;-75
2023/07/14 11:47:38;;;;;;;7.77;3.70;;;24.80;66.00;;;;;;5094542;28;20046;-76
2023/07/14 11:50:19;;;;;;;6.63;3.50;;;24.80;65.70;;;;;;5094647;28;20076;-74
2023/07/14 11:53:06;;;;;;;7.40;3.83;;;24.80;65.20;;;;;;5095168;28;20050;-75
2023/07/14 11:55:35;;;;;;;10.13;4.40;;;24.80;64.70;;;;;;5094986;28;20044;-75
2023/07/14 11:58:22;;;;;;;7.80;3.70;;;24.80;66.60;;;;;;5095273;28;20052;-75
2023/07/14 12:01:03;;;;;;;7.07;3.90;;;24.80;67.50;;;;;;5094028;28;20513;-75
2023/07/14 12:03:32;;;;;;;8.03;4.37;;;24.80;68.80;;;;;;5094806;28;20148;-76
2023/07/14 12:06:19;;;;;;;8.83;4.50;;;24.80;69.10;;;;;;5095156;28;20500;-74
2023/07/14 12:09:04;;;;;;;9.07;3.87;;;24.90;70.30;;;;;;5094763;28;20067;-75
2023/07/14 12:11:38;;;;;;;10.40;4.55;;;24.90;66.70;;;;;;5074440;28;20056;-75
2023/07/14 12:14:30;;;;;;;7.43;4.20;;;24.90;68.40;;;;;;5074748;28;20132;-74
2023/07/14 12:16:57;;;;;;;8.27;4.00;;;25.00;68.00;;;;;;5074840;28;20152;-75
2023/07/14 12:19:33;;;;;;;6.80;3.83;;;25.10;68.10;;;;;;5091936;28;20479;-74
2023/07/14 12:22:09;;;;;;;7.90;4.30;;;25.10;69.40;;;;;;5095020;28;20087;-73
2023/07/14 12:24:42;;;;;;;8.57;4.27;;;25.20;68.80;;;;;;5094215;28;20059;-74
2023/07/14 12:27:31;;;;;;;9.07;4.07;;;25.30;67.80;;;;;;5094627;28;20089;-75
2023/07/14 12:30:09;;;;;;;7.60;4.43;;;25.30;67.60;;;;;;5093895;28;20044;-75
2023/07/14 12:32:35;;;;;;;10.17;4.60;;;25.30;66.80;;;;;;5094384;28;20063;-76
2023/07/14 12:35:01;;;;;;;8.57;4.30;;;25.20;66.20;;;;;;5093045;28;20048;-75
2023/07/14 12:37:32;;;;;;;9.60;4.37;;;25.30;67.40;;;;;;5092686;28;20070;-74
2023/07/14 12:39:58;;;;;;;11.03;4.90;;;25.40;66.00;;;;;;5093930;28;20430;-74
2023/07/14 12:42:24;;;;;;;9.37;4.70;;;25.40;65.90;;;;;;5092930;28;20092;-75
2023/07/14 12:44:53;;;;;;;9.30;4.47;;;25.30;66.80;;;;;;5093926;28;20055;-76
2023/07/14 12:47:20;;;;;;;9.77;5.00;;;25.20;67.20;;;;;;5094260;28;20044;-76
2023/07/14 12:49:50;;;;;;;9.43;5.17;;;25.10;68.20;;;;;;5093178;28;20083;-77
2023/07/14 12:52:17;;;;;;;8.53;4.20;;;25.00;68.50;;;;;;5094116;28;20043;-75
2023/07/14 12:54:47;;;;;;;9.90;4.93;;;25.00;70.00;;;;;;5093505;28;20043;-74
2023/07/14 12:57:15;;;;;;;7.97;4.37;;;24.90;69.10;;;;;;5094092;28;20044;-75
2023/07/14 12:59:49;;;;;;;9.07;4.37;;;24.90;69.40;;;;;;5092126;28;20097;-74
2023/07/14 13:02:15;;;;;;;8.15;4.15;;;24.80;71.10;;;;;;5076117;28;20051;-74